createdAt,value
2022-10-06T00:02:20.429Z,17.95
2022-10-06T00:04:49.610Z,18.40
2022-10-06T00:07:18.899Z,18.17
2022-10-06T00:09:48.183Z,16.75
2022-10-06T00:12:17.960Z,16.00
2022-10-06T00:14:47.281Z,16.32
2022-10-06T00:17:16.527Z,20.82
2022-10-06T00:19:45.913Z,12.35
2022-10-06T00:22:15.294Z,21.02
2022-10-06T00:24:44.883Z,16.35
2022-10-06T00:27:14.139Z,12.93
2022-10-06T00:29:43.495Z,14.58
2022-10-06T00:32:13.539Z,18.55
2022-10-06T00:34:44.239Z,16.55
2022-10-06T00:37:13.938Z,14.73
2022-10-06T00:39:43.492Z,14.20
2022-10-06T00:42:28.022Z,15.32
2022-10-06T00:44:59.671Z,17.62
2022-10-06T00:47:31.164Z,12.70
2022-10-06T00:50:02.950Z,17.25
2022-10-06T00:52:33.123Z,15.27
2022-10-06T00:55:04.477Z,22.02
2022-10-06T00:57:35.325Z,14.35
2022-10-06T01:00:07.183Z,18.35
2022-10-06T01:02:39.876Z,12.88
2022-10-06T01:05:12.605Z,14.45
2022-10-06T01:10:11.605Z,15.38
2022-10-06T01:12:41.202Z,13.60
2022-10-06T01:15:11.848Z,15.48
2022-10-06T01:17:47.683Z,13.32
2022-10-06T01:20:18.767Z,16.73
2022-10-06T01:22:51.483Z,12.95
2022-10-06T01:27:56.450Z,11.28
2022-10-06T01:30:30.574Z,17.23
2022-10-06T01:33:00.178Z,15.53
2022-10-06T01:35:29.740Z,23.07
2022-10-06T01:37:59.652Z,14.55
2022-10-06T01:40:30.408Z,14.10
2022-10-06T01:43:01.534Z,20.48
2022-10-06T01:45:31.481Z,17.23
2022-10-06T01:48:00.881Z,18.90
2022-10-06T01:50:30.272Z,14.07
2022-10-06T01:52:59.582Z,15.90
2022-10-06T01:55:29.376Z,16.32
2022-10-06T01:58:00.209Z,14.83
2022-10-06T02:00:29.676Z,14.43
2022-10-06T02:02:58.958Z,17.62
2022-10-06T02:05:28.523Z,18.30
2022-10-06T02:07:57.930Z,15.72
2022-10-06T02:10:27.358Z,15.03
2022-10-06T02:12:57.360Z,18.05
2022-10-06T02:15:27.428Z,15.40
2022-10-06T02:17:56.836Z,15.48
2022-10-06T02:20:27.782Z,21.68
2022-10-06T02:22:57.216Z,20.17
2022-10-06T02:25:27.386Z,20.45
2022-10-06T02:27:56.923Z,27.05
2022-10-06T02:30:26.413Z,16.60
2022-10-06T02:32:56.288Z,18.73
2022-10-06T02:35:26.040Z,17.30
2022-10-06T02:37:55.464Z,15.55
2022-10-06T02:40:24.840Z,14.15
2022-10-06T02:42:54.209Z,16.75
2022-10-06T02:45:24.035Z,17.12
2022-10-06T02:47:55.328Z,13.60
2022-10-06T02:50:24.736Z,13.38
2022-10-06T02:52:54.190Z,24.47
2022-10-06T02:55:23.465Z,18.12
2022-10-06T02:57:55.118Z,17.55
2022-10-06T03:00:24.515Z,17.30
2022-10-06T03:02:54.188Z,18.12
2022-10-06T03:05:23.384Z,20.65
2022-10-06T03:07:53.280Z,17.55
2022-10-06T03:10:22.536Z,20.27
2022-10-06T03:12:51.777Z,21.68
2022-10-06T03:15:21.125Z,12.63
2022-10-06T03:17:51.108Z,19.92
2022-10-06T03:20:20.481Z,18.07
2022-10-06T03:22:49.695Z,14.25
2022-10-06T03:25:19.171Z,20.05
2022-10-06T03:27:50.050Z,16.73
2022-10-06T03:30:19.596Z,23.00
2022-10-06T03:32:49.759Z,15.88
2022-10-06T03:35:19.148Z,17.15
2022-10-06T03:37:48.538Z,22.50
2022-10-06T03:40:18.076Z,21.60
2022-10-06T03:42:48.299Z,18.17
2022-10-06T03:45:17.588Z,19.20
2022-10-06T03:47:46.871Z,16.45
2022-10-06T03:50:16.477Z,19.25
2022-10-06T03:52:47.334Z,15.10
2022-10-06T03:55:17.058Z,15.45
2022-10-06T03:57:46.487Z,19.17
2022-10-06T04:00:16.284Z,16.17
2022-10-06T04:02:47.401Z,16.62
2022-10-06T04:05:16.889Z,13.48
2022-10-06T04:07:46.525Z,19.07
2022-10-06T04:10:16.058Z,18.30
2022-10-06T04:12:45.297Z,12.65
2022-10-06T04:15:14.804Z,20.75
2022-10-06T04:17:44.021Z,24.47
2022-10-06T04:20:13.295Z,19.57
2022-10-06T04:22:42.519Z,15.28
2022-10-06T04:25:11.972Z,17.82
2022-10-06T04:27:41.271Z,21.90
2022-10-06T04:30:12.868Z,16.42
2022-10-06T04:32:42.693Z,23.45
2022-10-06T04:35:12.453Z,18.23
2022-10-06T04:37:41.817Z,25.00
2022-10-06T04:40:11.707Z,19.92
2022-10-06T04:42:41.185Z,15.78
2022-10-06T04:45:12.642Z,22.05
2022-10-06T04:47:42.588Z,20.02
2022-10-06T04:50:11.886Z,19.20
2022-10-06T04:52:43.137Z,21.57
2022-10-06T04:55:12.521Z,21.40
2022-10-06T04:57:42.766Z,23.07
2022-10-06T05:00:25.372Z,17.98
2022-10-06T05:02:56.213Z,25.10
2022-10-06T05:05:25.784Z,16.97
2022-10-06T05:07:56.486Z,19.82
2022-10-06T05:10:27.406Z,15.60
2022-10-06T05:12:57.316Z,22.48
2022-10-06T05:15:28.522Z,20.08
2022-10-06T05:17:58.039Z,20.32
2022-10-06T05:20:27.317Z,19.67
2022-10-06T05:22:57.173Z,20.12
2022-10-06T05:25:26.732Z,17.87
2022-10-06T05:27:56.103Z,17.67
2022-10-06T05:30:25.600Z,27.50
2022-10-06T05:32:54.958Z,24.60
2022-10-06T05:35:25.320Z,19.85
2022-10-06T05:37:55.885Z,20.55
2022-10-06T05:40:25.250Z,23.42
2022-10-06T05:42:56.631Z,23.80
2022-10-06T05:45:25.919Z,19.85
2022-10-06T05:47:55.815Z,23.02
2022-10-06T05:50:25.370Z,23.83
2022-10-06T05:52:58.750Z,24.98
2022-10-06T05:55:27.941Z,25.35
2022-10-06T05:57:57.227Z,26.48
2022-10-06T06:00:26.579Z,26.52
2022-10-06T06:02:56.048Z,23.62
2022-10-06T06:05:25.311Z,25.80
2022-10-06T06:07:54.695Z,20.77
2022-10-06T06:10:24.381Z,20.60
2022-10-06T06:12:53.832Z,19.95
2022-10-06T06:15:54.820Z,27.27
2022-10-06T06:18:24.332Z,22.67
2022-10-06T06:20:58.566Z,24.72
2022-10-06T06:23:41.451Z,20.43
2022-10-06T06:28:42.490Z,22.85
2022-10-06T06:31:19.857Z,24.12
2022-10-06T06:33:46.129Z,20.02
2022-10-06T06:36:17.746Z,25.02
2022-10-06T06:38:51.904Z,23.05
2022-10-06T06:41:27.131Z,28.10
2022-10-06T06:44:00.188Z,24.00
2022-10-06T06:49:07.492Z,29.50
2022-10-06T06:51:41.655Z,17.98
2022-10-06T06:54:12.992Z,21.85
2022-10-06T06:56:45.741Z,21.20
2022-10-06T06:59:17.380Z,26.15
2022-10-06T07:01:49.013Z,24.30
2022-10-06T07:04:22.805Z,18.67
2022-10-06T07:06:59.305Z,22.00
2022-10-06T07:09:30.358Z,20.43
2022-10-06T07:12:15.587Z,18.57
2022-10-06T07:15:04.528Z,20.08
2022-10-06T07:17:53.207Z,25.88
2022-10-06T07:20:41.462Z,23.45
2022-10-06T07:23:31.693Z,22.82
2022-10-06T07:26:01.449Z,16.48
2022-10-06T07:28:31.067Z,22.48
2022-10-06T07:31:00.690Z,21.75
2022-10-06T07:33:32.661Z,24.75
2022-10-06T07:36:04.258Z,21.90
2022-10-06T07:38:36.190Z,17.80
2022-10-06T07:41:21.054Z,25.50
2022-10-06T07:43:36.795Z,21.12
2022-10-06T07:46:12.231Z,20.50
2022-10-06T07:48:44.923Z,18.35
2022-10-06T07:51:16.402Z,20.82
2022-10-06T07:53:47.990Z,20.12
2022-10-06T07:56:22.428Z,19.75
2022-10-06T07:58:53.561Z,18.73
2022-10-06T08:01:24.869Z,17.95
2022-10-06T08:03:54.429Z,16.12
2022-10-06T08:06:24.730Z,17.50
2022-10-06T08:08:54.996Z,18.20
2022-10-06T08:11:24.270Z,17.80
2022-10-06T08:13:53.541Z,22.75
2022-10-06T08:16:24.461Z,18.07
2022-10-06T08:18:55.281Z,15.63
2022-10-06T08:21:27.234Z,13.70
2022-10-06T08:23:58.222Z,16.42
2022-10-06T08:26:28.494Z,18.40
2022-10-06T08:28:59.996Z,10.00
2022-10-06T08:31:29.632Z,16.30
2022-10-06T08:33:59.317Z,14.70
2022-10-06T08:36:32.246Z,10.13
2022-10-06T08:39:01.450Z,16.73
2022-10-06T08:41:43.700Z,11.85
2022-10-06T08:44:21.434Z,11.33
2022-10-06T08:47:05.337Z,13.72
2022-10-06T08:49:44.499Z,13.78
2022-10-06T08:52:41.267Z,17.52
2022-10-06T08:55:32.150Z,12.35
2022-10-06T08:58:21.149Z,15.53
2022-10-06T09:00:50.825Z,14.03
2022-10-06T09:03:24.907Z,14.20
2022-10-06T09:05:59.883Z,13.62
2022-10-06T09:08:42.076Z,15.58
2022-10-06T09:11:20.323Z,12.33
2022-10-06T09:13:59.890Z,14.50
2022-10-06T09:16:32.339Z,15.03
2022-10-06T09:21:54.024Z,12.40
2022-10-06T09:24:46.927Z,10.00
2022-10-06T09:27:21.831Z,20.60
2022-10-06T09:29:52.298Z,15.98
2022-10-06T09:32:23.511Z,11.78
2022-10-06T09:35:00.055Z,12.85
2022-10-06T09:37:29.794Z,12.18
2022-10-06T09:39:59.416Z,12.78
2022-10-06T09:42:32.563Z,14.25
2022-10-06T09:45:17.134Z,7.85
2022-10-06T09:47:47.209Z,10.10
2022-10-06T09:50:28.186Z,10.93
2022-10-06T09:53:05.909Z,15.53
2022-10-06T09:55:41.406Z,10.85
2022-10-06T09:58:25.787Z,12.03
2022-10-06T10:01:00.449Z,13.90
2022-10-06T10:04:01.876Z,13.62
2022-10-06T10:06:34.518Z,11.03
2022-10-06T10:09:22.846Z,11.83
2022-10-06T10:12:27.248Z,14.20
2022-10-06T10:15:15.199Z,11.25
2022-10-06T10:17:47.614Z,15.18
2022-10-06T10:22:54.157Z,9.48
2022-10-06T10:25:55.486Z,14.20
2022-10-06T10:29:01.196Z,11.73
2022-10-06T10:31:50.389Z,10.08
2022-10-06T10:34:55.133Z,9.80
2022-10-06T10:37:43.093Z,9.48
2022-10-06T10:40:36.225Z,12.20
2022-10-06T10:43:09.279Z,9.60
2022-10-06T10:45:45.077Z,8.95
2022-10-06T10:48:17.599Z,6.78
2022-10-06T10:51:08.392Z,11.43
2022-10-06T10:53:53.120Z,9.75
2022-10-06T10:56:24.346Z,11.03
2022-10-06T10:58:57.143Z,7.80
2022-10-06T11:01:32.140Z,11.70
2022-10-06T11:04:02.419Z,8.68
2022-10-06T11:06:37.824Z,7.47
2022-10-06T11:09:09.609Z,8.45
2022-10-06T11:11:59.972Z,10.85
2022-10-06T11:14:49.345Z,10.48
2022-10-06T11:17:40.958Z,13.45
2022-10-06T11:20:21.578Z,10.10
2022-10-06T11:22:59.838Z,7.22
2022-10-06T11:25:44.071Z,6.78
2022-10-06T11:28:22.151Z,7.03
2022-10-06T11:31:02.983Z,11.35
2022-10-06T11:33:50.562Z,7.92
2022-10-06T11:36:47.146Z,10.70
2022-10-06T11:39:34.726Z,13.18
2022-10-06T11:42:34.747Z,10.32
2022-10-06T11:45:06.293Z,10.90
2022-10-06T11:47:38.795Z,9.33
2022-10-06T11:50:34.726Z,7.80
2022-10-06T11:53:05.755Z,8.23
2022-10-06T11:55:34.943Z,8.33
2022-10-06T11:58:37.515Z,7.47
2022-10-06T12:00:42.986Z,10.10
2022-10-06T12:03:33.470Z,8.33
2022-10-06T12:06:03.263Z,10.90
2022-10-06T12:08:40.814Z,8.95
2022-10-06T12:11:42.744Z,10.65
2022-10-06T12:17:11.496Z,14.05
2022-10-06T12:19:29.023Z,9.25
2022-10-06T12:22:04.456Z,11.30
2022-10-06T12:24:43.116Z,8.95
2022-10-06T12:27:25.014Z,9.33
2022-10-06T12:29:55.975Z,9.08
2022-10-06T12:32:43.672Z,6.87
2022-10-06T12:35:26.770Z,8.58
2022-10-06T12:37:58.526Z,9.68
2022-10-06T12:40:47.272Z,10.30
2022-10-06T12:43:20.922Z,7.45
2022-10-06T12:46:01.740Z,12.55
2022-10-06T12:49:07.380Z,10.78
2022-10-06T12:51:44.480Z,7.45
2022-10-06T12:54:26.158Z,7.85
2022-10-06T12:57:00.492Z,12.60
2022-10-06T12:59:35.091Z,12.88
2022-10-06T13:02:08.013Z,8.03
2022-10-06T13:05:01.080Z,9.43
2022-10-06T13:07:33.118Z,8.13
2022-10-06T13:10:17.639Z,10.07
2022-10-06T13:12:50.167Z,8.75
2022-10-06T13:18:00.298Z,9.88
2022-10-06T13:20:42.049Z,10.68
2022-10-06T13:23:26.020Z,11.43
2022-10-06T13:25:57.863Z,8.53
2022-10-06T13:28:36.523Z,8.98
2022-10-06T13:31:27.487Z,13.32
2022-10-06T13:34:13.709Z,11.12
2022-10-06T13:36:46.752Z,6.45
2022-10-06T13:39:18.640Z,8.38
2022-10-06T13:41:53.304Z,9.80
2022-10-06T13:44:40.244Z,8.68
2022-10-06T13:47:20.663Z,9.78
2022-10-06T13:50:05.057Z,10.50
2022-10-06T13:52:42.293Z,8.73
2022-10-06T13:55:23.027Z,15.32
2022-10-06T13:58:04.842Z,10.38
2022-10-06T14:00:50.356Z,6.35
2022-10-06T14:03:22.906Z,6.33
2022-10-06T14:08:25.906Z,9.18
2022-10-06T14:11:00.199Z,7.90
2022-10-06T14:13:35.120Z,12.65
2022-10-06T14:16:06.880Z,9.48
2022-10-06T14:18:41.911Z,8.38
2022-10-06T14:21:30.089Z,6.12
2022-10-06T14:24:02.658Z,7.75
2022-10-06T14:26:36.272Z,8.60
2022-10-06T14:29:05.986Z,7.58
2022-10-06T14:31:35.860Z,8.95
2022-10-06T14:34:05.794Z,8.68
2022-10-06T14:36:37.188Z,8.23
2022-10-06T14:39:07.535Z,10.05
2022-10-06T14:41:36.980Z,8.15
2022-10-06T14:44:09.853Z,5.78
2022-10-06T14:46:40.331Z,11.45
2022-10-06T14:49:11.089Z,11.48
2022-10-06T14:51:41.686Z,7.45
2022-10-06T14:54:11.913Z,8.50
2022-10-06T14:56:41.907Z,6.37
2022-10-06T14:59:14.433Z,9.93
2022-10-06T15:01:43.982Z,8.25
2022-10-06T15:04:16.303Z,10.23
2022-10-06T15:07:03.867Z,10.98
2022-10-06T15:09:33.474Z,8.60
2022-10-06T15:12:03.384Z,5.87
2022-10-06T15:14:34.491Z,6.40
2022-10-06T15:17:03.964Z,8.70
2022-10-06T15:19:34.270Z,6.03
2022-10-06T15:22:05.186Z,7.80
2022-10-06T15:24:34.853Z,7.33
2022-10-06T15:27:25.046Z,7.80
2022-10-06T15:29:53.477Z,5.47
2022-10-06T15:32:22.958Z,9.18
2022-10-06T15:34:52.736Z,7.95
2022-10-06T15:37:22.343Z,6.85
2022-10-06T15:39:52.237Z,8.10
2022-10-06T15:42:23.379Z,11.30
2022-10-06T15:44:52.862Z,7.25
2022-10-06T15:47:22.659Z,9.03
2022-10-06T15:49:52.047Z,8.15
2022-10-06T15:52:21.422Z,10.68
2022-10-06T15:54:50.723Z,12.13
2022-10-06T15:57:21.480Z,11.88
2022-10-06T15:59:51.355Z,9.95
2022-10-06T16:02:21.237Z,10.38
2022-10-06T16:05:06.474Z,9.33
2022-10-06T16:07:36.122Z,6.45
2022-10-06T16:10:06.693Z,8.20
2022-10-06T16:12:36.184Z,11.38
2022-10-06T16:15:06.126Z,7.55
2022-10-06T16:17:35.374Z,10.23
2022-10-06T16:20:06.470Z,9.03
2022-10-06T16:22:36.485Z,11.28
2022-10-06T16:25:06.542Z,8.48
2022-10-06T16:27:35.910Z,11.68
2022-10-06T16:30:05.970Z,10.72
2022-10-06T16:32:35.603Z,9.70
2022-10-06T16:35:05.675Z,6.87
2022-10-06T16:37:35.036Z,8.05
2022-10-06T16:40:04.353Z,6.95
2022-10-06T16:42:33.698Z,10.98
2022-10-06T16:45:03.152Z,9.45
2022-10-06T16:47:32.547Z,7.67
2022-10-06T16:50:01.867Z,7.33
2022-10-06T16:52:31.357Z,10.55
2022-10-06T16:55:02.641Z,10.40
2022-10-06T16:57:32.198Z,7.35
2022-10-06T17:00:03.062Z,11.85
2022-10-06T17:02:34.059Z,8.58
2022-10-06T17:05:03.320Z,10.13
2022-10-06T17:07:32.918Z,9.88
2022-10-06T17:10:19.692Z,7.62
2022-10-06T17:12:33.439Z,9.50
2022-10-06T17:15:02.643Z,7.83
2022-10-06T17:17:32.085Z,8.43
2022-10-06T17:20:01.471Z,12.23
2022-10-06T17:22:30.860Z,9.98
2022-10-06T17:25:00.693Z,10.55
2022-10-06T17:27:31.650Z,9.43
2022-10-06T17:30:00.959Z,11.53
2022-10-06T17:32:30.417Z,8.43
2022-10-06T17:34:59.717Z,8.25
2022-10-06T17:37:29.836Z,10.13
2022-10-06T17:39:59.038Z,11.00
2022-10-06T17:42:28.520Z,11.28
2022-10-06T17:44:58.606Z,12.95
2022-10-06T17:47:27.937Z,10.13
2022-10-06T17:49:57.200Z,9.35
2022-10-06T17:52:26.584Z,15.98
2022-10-06T17:54:56.542Z,13.32
2022-10-06T17:57:25.779Z,11.53
2022-10-06T17:59:55.382Z,8.60
2022-10-06T18:02:24.789Z,7.47
2022-10-06T18:04:54.027Z,9.13
2022-10-06T18:07:23.413Z,8.33
2022-10-06T18:09:54.349Z,7.17
2022-10-06T18:12:23.619Z,8.43
2022-10-06T18:14:52.825Z,13.80
2022-10-06T18:17:23.755Z,12.33
2022-10-06T18:19:52.947Z,10.20
2022-10-06T18:22:22.390Z,11.00
2022-10-06T18:24:55.082Z,12.28
2022-10-06T18:27:24.204Z,11.12
2022-10-06T18:29:53.401Z,8.68
2022-10-06T18:37:24.600Z,8.35
2022-10-06T18:39:54.123Z,10.10
2022-10-06T18:42:23.547Z,14.53
2022-10-06T18:45:10.690Z,12.05
2022-10-06T18:47:58.048Z,11.08
2022-10-06T18:50:27.485Z,11.53
2022-10-06T18:52:57.082Z,12.80
2022-10-06T18:55:27.854Z,10.78
2022-10-06T18:58:00.079Z,11.50
2022-10-06T19:00:29.552Z,12.93
2022-10-06T19:02:59.052Z,12.65
2022-10-06T19:05:28.403Z,12.23
2022-10-06T19:07:57.742Z,16.00
2022-10-06T19:10:26.960Z,14.87
2022-10-06T19:12:58.433Z,9.98
2022-10-06T19:15:27.690Z,14.43
2022-10-06T19:17:57.111Z,13.08
2022-10-06T19:20:29.057Z,14.50
2022-10-06T19:23:00.194Z,10.53
2022-10-06T19:25:29.422Z,12.43
2022-10-06T19:27:59.986Z,13.78
2022-10-06T19:30:29.425Z,13.13
2022-10-06T19:32:58.826Z,11.38
2022-10-06T19:35:28.064Z,9.63
2022-10-06T19:37:57.427Z,14.05
2022-10-06T19:40:28.005Z,11.35
2022-10-06T19:42:57.332Z,15.70
2022-10-06T19:45:26.563Z,12.53
2022-10-06T19:47:57.826Z,9.65
2022-10-06T19:50:29.268Z,13.65
2022-10-06T19:52:58.611Z,11.10
2022-10-06T19:55:28.686Z,11.35
2022-10-06T19:57:59.956Z,13.20
2022-10-06T20:00:30.524Z,16.82
2022-10-06T20:02:59.791Z,19.67
2022-10-06T20:05:29.210Z,16.97
2022-10-06T20:07:58.686Z,10.32
2022-10-06T20:10:28.232Z,14.25
2022-10-06T20:12:58.625Z,11.88
2022-10-06T20:15:28.120Z,14.70
2022-10-06T20:17:57.605Z,11.65
2022-10-06T20:20:27.059Z,15.98
2022-10-06T20:22:56.265Z,8.90
2022-10-06T20:25:26.442Z,16.95
2022-10-06T20:27:56.005Z,11.68
2022-10-06T20:30:25.565Z,14.98
2022-10-06T20:32:54.881Z,16.60
2022-10-06T20:35:24.468Z,17.15
2022-10-06T20:37:53.658Z,17.62
2022-10-06T20:40:42.430Z,15.23
2022-10-06T20:43:11.820Z,13.35
2022-10-06T20:45:41.459Z,17.20
2022-10-06T20:48:12.362Z,19.82
2022-10-06T20:50:42.388Z,15.08
2022-10-06T20:53:13.369Z,17.90
2022-10-06T20:55:45.826Z,16.40
2022-10-06T20:58:15.088Z,17.65
2022-10-06T21:00:44.357Z,12.58
2022-10-06T21:03:13.966Z,17.00
2022-10-06T21:05:50.641Z,16.12
2022-10-06T21:08:19.986Z,15.50
2022-10-06T21:10:57.391Z,16.40
2022-10-06T21:13:26.972Z,18.07
2022-10-06T21:16:00.547Z,18.30
2022-10-06T21:18:30.005Z,15.08
2022-10-06T21:21:03.657Z,18.87
2022-10-06T21:23:39.150Z,20.05
2022-10-06T21:26:11.690Z,19.65
2022-10-06T21:31:20.392Z,20.90
2022-10-06T21:33:50.499Z,23.27
2022-10-06T21:36:22.613Z,13.90
2022-10-06T21:38:56.819Z,21.80
2022-10-06T21:41:32.259Z,22.50
2022-10-06T21:44:04.516Z,21.02
2022-10-06T21:46:45.939Z,21.17
2022-10-06T21:49:17.751Z,19.57
2022-10-06T21:51:49.475Z,18.43
2022-10-06T21:54:19.511Z,24.72
2022-10-06T21:56:48.966Z,21.52
2022-10-06T21:59:18.252Z,23.27
2022-10-06T22:01:50.324Z,22.22
2022-10-06T22:04:20.183Z,16.37
2022-10-06T22:06:50.954Z,16.17
2022-10-06T22:09:21.787Z,20.72
2022-10-06T22:11:51.255Z,19.73
2022-10-06T22:14:21.032Z,20.00
2022-10-06T22:16:50.725Z,16.20
2022-10-06T22:19:20.210Z,22.25
2022-10-06T22:21:49.915Z,16.97
2022-10-06T22:24:21.347Z,22.73
2022-10-06T22:26:50.831Z,18.00
2022-10-06T22:29:21.710Z,19.27
2022-10-06T22:31:53.967Z,21.48
2022-10-06T22:34:23.367Z,23.67
2022-10-06T22:36:52.715Z,23.90
2022-10-06T22:39:22.037Z,23.73
2022-10-06T22:41:51.233Z,21.30
2022-10-06T22:44:20.632Z,15.80
2022-10-06T22:46:49.928Z,18.25
2022-10-06T22:49:19.481Z,23.20
2022-10-06T22:51:48.876Z,19.00
2022-10-06T22:54:21.659Z,24.43
2022-10-06T22:56:51.167Z,24.43
2022-10-06T22:59:20.863Z,22.55
2022-10-06T23:01:50.160Z,20.88
2022-10-06T23:04:19.357Z,21.97
2022-10-06T23:06:48.864Z,26.97
2022-10-06T23:09:18.216Z,27.40
2022-10-06T23:11:47.496Z,23.10
2022-10-06T23:14:16.807Z,20.95
2022-10-06T23:16:46.186Z,23.12
2022-10-06T23:19:15.689Z,24.57
2022-10-06T23:21:45.249Z,24.05
2022-10-06T23:24:14.777Z,26.15
2022-10-06T23:26:44.959Z,21.25
2022-10-06T23:29:14.413Z,30.02
2022-10-06T23:31:43.741Z,22.60
2022-10-06T23:34:13.027Z,20.97
2022-10-06T23:36:42.636Z,19.05
2022-10-06T23:39:13.474Z,22.32
2022-10-06T23:41:42.985Z,21.20
2022-10-06T23:44:12.379Z,27.55
2022-10-06T23:46:41.865Z,22.13
2022-10-06T23:49:11.279Z,26.65
2022-10-06T23:51:40.818Z,24.00
2022-10-06T23:54:10.198Z,20.45
2022-10-06T23:56:39.986Z,20.30
2022-10-06T23:59:09.608Z,22.87
